This is the latest recevied weather packets stored in our database for station/object KM4KBD. If no packets are shown the sender has not sent any weather packets the latest 10 day(s).
| Time | Temp. | Humidity | Pressure | Rain* | Wind** | Luminosity | Snow |
|---|---|---|---|---|---|---|---|
| 1777235277 | 24.44° C | 48% | 1020.8 hPa | 0 mm | - | 491 W/m² | - |
| 1777234974 | 23.89° C | 50% | 1021 hPa | 0 mm | - | 501 W/m² | - |
| 1777234670 | 25° C | 48% | 1020.9 hPa | 0 mm | - | 514 W/m² | - |
| 1777234365 | 25° C | 49% | 1021 hPa | 0 mm | - | 525 W/m² | - |
| 1777234061 | 24.44° C | 49% | 1021 hPa | 0 mm | - | 537 W/m² | - |
| 1777233757 | 25° C | 49% | 1020.8 hPa | 0 mm | - | 549 W/m² | - |
| 1777233453 | 24.44° C | 51% | 1021.2 hPa | 0 mm | - | 560 W/m² | - |
| 1777233152 | 23.89° C | 49% | 1021.2 hPa | 0 mm | - | 572 W/m² | - |
| 1777232849 | 24.44° C | 49% | 1020.8 hPa | 0 mm | - | 584 W/m² | - |
| 1777232547 | 24.44° C | 49% | 1021 hPa | 0 mm | - | 595 W/m² | - |
| 1777232245 | 24.44° C | 50% | 1021.3 hPa | 0 mm | - | 607 W/m² | - |
| 1777231940 | 24.44° C | 50% | 1021.5 hPa | 0 mm | - | 617 W/m² | - |
| 1777231638 | 23.89° C | 52% | 1021.3 hPa | 0 mm | - | 628 W/m² | - |
| 1777231335 | 23.33° C | 50% | 1021.7 hPa | 0 mm | - | 636 W/m² | - |
| 1777231030 | 24.44° C | 48% | 1021.5 hPa | 0 mm | - | 648 W/m² | - |
| 1777230727 | 23.89° C | 52% | 1021.8 hPa | 0 mm | - | 656 W/m² | - |
| 1777230427 | 23.89° C | 52% | 1021.8 hPa | 0 mm | - | 664 W/m² | - |
| 1777230124 | 23.33° C | 51% | 1022.2 hPa | 0 mm | - | 672 W/m² | - |
| 1777229820 | 23.89° C | 51% | 1022 hPa | 0 mm | - | 683 W/m² | - |
| 1777229517 | 23.89° C | 51% | 1022 hPa | 0 mm | - | 685 W/m² | - |
| 1777229214 | 23.89° C | 51% | 1022 hPa | 0 mm | - | 695 W/m² | - |
| 1777228911 | 23.89° C | 52% | 1021.8 hPa | 0 mm | - | 697 W/m² | - |
| 1777228607 | 23.89° C | 51% | 1022.1 hPa | 0 mm | - | 709 W/m² | - |
| 1777228303 | 23.89° C | 52% | 1022 hPa | 0 mm | - | 718 W/m² | - |
| 1777227998 | 23.89° C | 52% | 1022 hPa | 0 mm | - | 729 W/m² | - |
* Rain latest hour (hover to see other rain measurements)
** Current wind speed in m/s (hover to see current wind gust speed)